Bergschenhoek, Netherlands
Current Conditions -  °F | °C
As of 3:25 PM on Tuesday 21 Oct 2014 (Local Time) from EHRD Reporting Station
Moderate Rain Moderate Rain  
Wind Chill: 54°   Ceiling: 4800
Heat Index: 54°   Visibility: 6mi
Dew Point: 46°   Wind: 21mph
Humidity: 77%   Direction: 280°W
Pressure: 29.5"   Gusts: 35mph
Location:  51.99°N, 4.5°E
Report Text: EHRD 211325Z AUTO 28018G30KT 240V320 9999 RADZ SCT015CB SCT029BKN048 12/08 Q0999 TEMPO 4000 SHRA SCT020CB
Loading
Personal Weather Stations






























Interactive Weather Map
Tropical Storm Tracking
New forecast layout! Learn more

10-Day Weather Forecast

Advertisements
Track Severe Weather on mobile